VYYY/RGN METAR and TAF weather

Enter ICAO airport designator
Station Type Date Time Source
VYYY METAR 2019/10/23 13:00 UTC NOAA

VYYY 231300Z 17005KT 7000 FEW020 30/25 Q1007 NOSIG


Station Type Date Time Source
VYYY Decoded METAR 2019/10/23 13:00 UTC NOAA

Yangon, Myanmar (VYYY) 16-46N 096-10E 15M
Oct 23, 2019 - 09:00 AM EDT / 2019.10.23 1300 UTC
Wind: from the S (170 degrees) at 6 MPH (5 KT):0
Visibility: 4 mile(s):0
Sky conditions: mostly clear
Temperature: 86 F (30 C)
Heat index: 96.8 F (36.0 C):1
Dew Point: 77 F (25 C)
Relative Humidity: 74%
Pressure (altimeter): 29.74 in. Hg (1007 hPa)
ob: VYYY 231300Z 17005KT 7000 FEW020 30/25 Q1007 NOSIG
cycle: 13

Station Type Date Time Source
VYYY TAF 2019/10/23 12:39 UTC NOAA

TAF TAF VYYY 231100Z 2312/2412 30008KT 7000 SCT018 SCT110
TEMPO 2312/2318 19006KT 5000 HZ SCT018 SCT110

Example: see airport list